createdAt,value
2018-11-23T00:00:30.504Z,20.93
2018-11-23T00:02:59.703Z,21.13
2018-11-23T00:05:28.199Z,21.40
2018-11-23T00:07:57.575Z,20.77
2018-11-23T00:10:27.404Z,21.50
2018-11-23T00:12:56.282Z,21.47
2018-11-23T00:15:25.295Z,20.40
2018-11-23T00:17:53.823Z,22.30
2018-11-23T00:20:24.720Z,21.03
2018-11-23T00:22:53.254Z,21.37
2018-11-23T00:25:23.066Z,19.60
2018-11-23T00:27:51.995Z,20.47
2018-11-23T00:30:22.751Z,20.00
2018-11-23T00:32:51.674Z,20.17
2018-11-23T00:35:23.475Z,20.70
2018-11-23T00:37:52.716Z,20.30
2018-11-23T00:40:22.386Z,22.93
2018-11-23T00:42:51.848Z,21.57
2018-11-23T00:45:20.781Z,21.80
2018-11-23T00:47:49.987Z,22.57
2018-11-23T00:50:19.608Z,20.73
2018-11-23T00:52:48.405Z,21.27
2018-11-23T00:55:18.460Z,22.93
2018-11-23T00:57:46.959Z,22.40
2018-11-23T01:00:22.340Z,21.53
2018-11-23T01:02:50.987Z,20.47
2018-11-23T01:05:19.753Z,19.93
2018-11-23T01:07:49.682Z,19.63
2018-11-23T01:10:20.007Z,21.30
2018-11-23T01:12:49.741Z,21.23
2018-11-23T01:15:18.295Z,21.50
2018-11-23T01:17:46.845Z,20.57
2018-11-23T01:20:16.983Z,20.77
2018-11-23T01:22:45.707Z,21.13
2018-11-23T01:25:15.254Z,20.00
2018-11-23T01:27:44.646Z,20.13
2018-11-23T01:30:17.582Z,20.60
2018-11-23T01:32:46.221Z,19.93
2018-11-23T01:35:14.812Z,20.03
2018-11-23T01:37:43.525Z,20.87
2018-11-23T01:40:14.343Z,20.67
2018-11-23T01:42:42.849Z,19.87
2018-11-23T01:45:12.023Z,20.63
2018-11-23T01:47:40.571Z,20.37
2018-11-23T01:50:14.323Z,20.27
2018-11-23T01:52:43.571Z,20.03
2018-11-23T01:55:13.038Z,21.60
2018-11-23T01:57:41.949Z,22.10
2018-11-23T02:00:15.419Z,22.10
2018-11-23T02:02:44.182Z,21.87
2018-11-23T02:05:12.635Z,20.63
2018-11-23T02:07:41.109Z,21.20
2018-11-23T02:10:10.801Z,21.00
2018-11-23T02:12:39.246Z,19.63
2018-11-23T02:15:09.727Z,21.00
2018-11-23T02:17:38.159Z,22.27
2018-11-23T02:20:08.683Z,21.87
2018-11-23T02:22:37.113Z,22.13
2018-11-23T02:25:05.638Z,22.00
2018-11-23T02:27:34.083Z,21.47
2018-11-23T02:30:02.596Z,22.17
2018-11-23T02:32:31.034Z,22.40
2018-11-23T02:34:59.556Z,22.20
2018-11-23T02:37:27.976Z,21.40
2018-11-23T02:39:56.410Z,20.63
2018-11-23T02:42:24.815Z,21.70
2018-11-23T02:44:53.250Z,21.93
2018-11-23T02:47:22.036Z,22.40
2018-11-23T02:49:50.459Z,22.90
2018-11-23T02:52:18.860Z,20.90
2018-11-23T02:54:47.271Z,21.17
2018-11-23T02:57:15.695Z,21.93
2018-11-23T02:59:44.129Z,20.87
2018-11-23T03:02:12.534Z,22.37
2018-11-23T03:04:42.539Z,21.43
2018-11-23T03:07:11.007Z,23.10
2018-11-23T03:09:39.442Z,22.13
2018-11-23T03:12:07.856Z,22.37
2018-11-23T03:14:36.281Z,21.77
2018-11-23T03:17:04.750Z,21.90
2018-11-23T03:19:33.182Z,20.87
2018-11-23T03:22:01.591Z,23.97
2018-11-23T03:24:30.072Z,22.07
2018-11-23T03:26:58.482Z,21.60
2018-11-23T03:29:26.961Z,22.70
2018-11-23T03:31:55.389Z,20.70
2018-11-23T03:34:23.900Z,22.30
2018-11-23T03:36:52.443Z,23.07
2018-11-23T03:39:20.962Z,22.77
2018-11-23T03:41:49.443Z,22.13
2018-11-23T03:44:17.967Z,22.33
2018-11-23T03:46:46.426Z,22.63
2018-11-23T03:49:14.991Z,21.83
2018-11-23T03:51:43.523Z,21.83
2018-11-23T03:54:12.021Z,21.17
2018-11-23T03:56:40.474Z,20.17
2018-11-23T03:59:08.964Z,21.23
2018-11-23T04:01:37.430Z,22.03
2018-11-23T04:04:06.786Z,21.10
2018-11-23T04:06:35.394Z,21.13
2018-11-23T04:09:04.707Z,19.33
2018-11-23T04:11:33.407Z,20.10
2018-11-23T04:14:01.894Z,20.33
2018-11-23T04:16:30.402Z,20.70
2018-11-23T04:18:58.921Z,20.23
2018-11-23T04:21:27.479Z,21.30
2018-11-23T04:23:55.951Z,20.73
2018-11-23T04:26:24.873Z,21.07
2018-11-23T04:28:52.938Z,22.00
2018-11-23T04:31:21.719Z,22.60
2018-11-23T04:33:50.278Z,23.27
2018-11-23T04:36:18.775Z,22.93
2018-11-23T04:38:47.298Z,21.27
2018-11-23T04:41:15.859Z,22.90
2018-11-23T04:43:44.362Z,22.13
2018-11-23T04:46:12.871Z,23.90
2018-11-23T04:48:41.322Z,22.60
2018-11-23T04:51:09.918Z,23.03
2018-11-23T04:53:38.646Z,22.83
2018-11-23T04:56:07.139Z,22.03
2018-11-23T04:58:36.702Z,22.23
2018-11-23T05:01:05.274Z,23.53
2018-11-23T05:03:33.772Z,23.77
2018-11-23T05:06:02.290Z,23.77
2018-11-23T05:08:30.803Z,22.03
2018-11-23T05:10:59.307Z,21.57
2018-11-23T05:13:27.799Z,23.90
2018-11-23T05:15:56.286Z,22.87
2018-11-23T05:18:24.727Z,22.53
2018-11-23T05:20:53.212Z,24.13
2018-11-23T05:23:22.054Z,24.07
2018-11-23T05:25:50.620Z,23.63
2018-11-23T05:28:19.090Z,23.53
2018-11-23T05:30:47.570Z,24.23
2018-11-23T05:33:16.027Z,25.13
2018-11-23T05:35:44.516Z,23.77
2018-11-23T05:38:13.026Z,24.40
2018-11-23T05:40:41.498Z,22.83
2018-11-23T05:43:09.975Z,24.63
2018-11-23T05:45:38.447Z,22.53
2018-11-23T05:48:06.895Z,24.27
2018-11-23T05:50:35.450Z,25.03
2018-11-23T05:53:03.942Z,25.03
2018-11-23T05:55:32.411Z,24.50
2018-11-23T05:58:00.878Z,24.67
2018-11-23T06:00:30.705Z,23.23
2018-11-23T06:02:59.503Z,24.43
2018-11-23T06:05:27.979Z,23.07
2018-11-23T06:07:56.430Z,25.63
2018-11-23T06:10:24.948Z,23.60
2018-11-23T06:12:53.441Z,24.50
2018-11-23T06:15:23.163Z,23.13
2018-11-23T06:17:51.875Z,24.77
2018-11-23T06:20:22.329Z,23.90
2018-11-23T06:22:51.578Z,24.90
2018-11-23T06:25:30.058Z,25.23
2018-11-23T06:27:59.010Z,25.47
2018-11-23T06:30:27.806Z,27.27
2018-11-23T06:33:07.528Z,26.07
2018-11-23T06:35:35.971Z,26.60
2018-11-23T06:38:04.627Z,27.37
2018-11-23T06:40:33.120Z,25.53
2018-11-23T06:43:01.576Z,28.53
2018-11-23T06:45:32.306Z,30.57
2018-11-23T06:48:00.776Z,29.57
2018-11-23T06:50:29.527Z,37.03
2018-11-23T06:52:57.983Z,29.37
2018-11-23T06:55:26.410Z,27.80
2018-11-23T06:57:54.884Z,26.93
2018-11-23T07:00:23.342Z,26.70
2018-11-23T07:02:51.835Z,27.50
2018-11-23T07:05:20.287Z,25.97
2018-11-23T07:07:48.802Z,26.73
2018-11-23T07:10:17.723Z,26.50
2018-11-23T07:12:46.179Z,25.90
2018-11-23T07:15:14.624Z,26.37
2018-11-23T07:17:43.227Z,25.50
2018-11-23T07:20:13.423Z,24.33
2018-11-23T07:22:42.367Z,24.07
2018-11-23T07:25:12.323Z,26.93
2018-11-23T07:27:41.196Z,26.00
2018-11-23T07:30:20.298Z,26.33
2018-11-23T07:32:48.854Z,26.53
2018-11-23T07:35:17.339Z,26.53
2018-11-23T07:37:46.241Z,26.90
2018-11-23T07:40:27.438Z,26.33
2018-11-23T07:42:56.215Z,27.50
2018-11-23T07:45:24.953Z,27.60
2018-11-23T07:47:54.205Z,28.90
2018-11-23T07:50:22.674Z,28.07
2018-11-23T07:52:51.158Z,27.00
2018-11-23T07:55:19.628Z,27.27
2018-11-23T07:57:48.113Z,27.63
2018-11-23T08:00:20.367Z,28.07
2018-11-23T08:02:49.188Z,27.30
2018-11-23T08:05:18.398Z,28.20
2018-11-23T08:07:47.223Z,28.77
2018-11-23T08:10:15.891Z,27.27
2018-11-23T08:12:46.691Z,26.30
2018-11-23T08:15:17.966Z,26.90
2018-11-23T08:17:46.450Z,27.30
2018-11-23T08:20:16.026Z,25.87
2018-11-23T08:22:44.708Z,28.23
2018-11-23T08:25:14.927Z,27.97
2018-11-23T08:27:44.212Z,27.57
2018-11-23T08:30:18.282Z,26.93
2018-11-23T08:32:46.859Z,24.93
2018-11-23T08:35:15.571Z,26.17
2018-11-23T08:37:44.275Z,27.40
2018-11-23T08:40:20.675Z,27.80
2018-11-23T08:42:49.919Z,28.47
2018-11-23T08:45:20.138Z,27.07
2018-11-23T08:47:48.774Z,27.90
2018-11-23T08:50:23.224Z,27.13
2018-11-23T08:52:51.719Z,28.73
2018-11-23T08:55:20.594Z,27.77
2018-11-23T08:57:49.988Z,26.63
2018-11-23T09:00:24.147Z,26.13
2018-11-23T09:02:54.200Z,25.90
2018-11-23T09:05:22.696Z,28.60
2018-11-23T09:07:53.626Z,24.93
2018-11-23T09:10:23.874Z,26.77
2018-11-23T09:12:54.920Z,26.70
2018-11-23T09:15:23.410Z,26.07
2018-11-23T09:17:52.286Z,27.40
2018-11-23T09:20:20.874Z,26.37
2018-11-23T09:22:49.379Z,27.23
2018-11-23T09:26:42.270Z,26.53
2018-11-23T09:29:11.574Z,24.87
2018-11-23T09:31:40.029Z,25.27
2018-11-23T09:34:08.548Z,26.97
2018-11-23T09:36:37.001Z,26.37
2018-11-23T09:39:07.215Z,26.77
2018-11-23T09:41:35.659Z,27.70
2018-11-23T09:44:04.198Z,24.93
2018-11-23T09:46:32.648Z,26.57
2018-11-23T09:49:01.143Z,26.53
2018-11-23T09:51:29.594Z,26.93
2018-11-23T09:53:58.074Z,27.53
2018-11-23T09:56:26.528Z,25.97
2018-11-23T10:00:20.700Z,25.40
2018-11-23T10:02:50.003Z,25.60
2018-11-23T10:05:19.204Z,26.43
2018-11-23T10:07:53.911Z,26.00
2018-11-23T10:10:22.955Z,25.40
2018-11-23T10:12:51.759Z,24.63
2018-11-23T10:15:20.928Z,26.27
2018-11-23T10:17:49.378Z,26.03
2018-11-23T10:20:21.277Z,25.93
2018-11-23T10:22:49.833Z,26.30
2018-11-23T10:25:23.503Z,25.63
2018-11-23T10:27:52.619Z,26.37
2018-11-23T10:30:25.591Z,24.63
2018-11-23T10:32:55.439Z,24.80
2018-11-23T10:35:24.037Z,26.20
2018-11-23T10:37:54.319Z,26.30
2018-11-23T10:40:24.047Z,25.33
2018-11-23T10:42:52.571Z,23.67
2018-11-23T10:45:23.085Z,24.93
2018-11-23T10:47:52.143Z,26.13
2018-11-23T10:50:22.008Z,24.43
2018-11-23T10:52:51.327Z,25.00
2018-11-23T10:55:21.659Z,25.50
2018-11-23T10:57:50.403Z,25.03
2018-11-23T11:00:24.567Z,25.50
2018-11-23T11:02:59.206Z,23.43
2018-11-23T11:06:05.926Z,25.20
2018-11-23T11:08:34.379Z,24.20
2018-11-23T11:11:03.338Z,24.47
2018-11-23T11:13:31.998Z,25.03
2018-11-23T11:16:00.649Z,23.97
2018-11-23T11:18:29.062Z,24.57
2018-11-23T11:20:57.540Z,24.83
2018-11-23T11:23:25.996Z,24.10
2018-11-23T11:25:56.363Z,24.83
2018-11-23T11:28:24.810Z,23.67
2018-11-23T11:30:53.480Z,23.67
2018-11-23T11:33:21.939Z,24.00
2018-11-23T11:35:50.499Z,23.87
2018-11-23T11:38:18.961Z,23.67
2018-11-23T11:40:47.442Z,23.17
2018-11-23T11:43:16.087Z,23.57
2018-11-23T11:45:44.708Z,24.77
2018-11-23T11:48:13.154Z,22.83
2018-11-23T11:50:41.680Z,23.40
2018-11-23T11:53:10.158Z,23.23
2018-11-23T11:55:38.717Z,23.40
2018-11-23T11:58:07.228Z,24.03
2018-11-23T12:00:35.699Z,22.70
2018-11-23T12:03:04.151Z,23.60
2018-11-23T12:05:32.622Z,22.77
2018-11-23T12:08:01.099Z,23.80
2018-11-23T12:10:29.580Z,23.03
2018-11-23T12:12:58.051Z,23.03
2018-11-23T12:15:26.532Z,22.37
2018-11-23T12:17:54.983Z,24.03
2018-11-23T12:20:24.535Z,23.10
2018-11-23T12:22:53.394Z,22.40
2018-11-23T12:25:22.519Z,22.37
2018-11-23T12:27:50.986Z,21.00
2018-11-23T12:30:20.748Z,21.07
2018-11-23T12:32:50.427Z,23.27
2018-11-23T12:35:19.899Z,21.47
2018-11-23T12:37:48.408Z,21.57
2018-11-23T12:40:17.991Z,21.87
2018-11-23T12:42:47.121Z,22.30
2018-11-23T12:45:17.057Z,21.37
2018-11-23T12:47:45.607Z,20.47
2018-11-23T12:50:18.182Z,22.13
2018-11-23T12:52:46.858Z,20.93
2018-11-23T12:55:16.127Z,22.13
2018-11-23T12:57:44.710Z,20.53
2018-11-23T13:00:19.505Z,21.10
2018-11-23T13:02:49.796Z,21.37
2018-11-23T13:05:19.627Z,21.83
2018-11-23T13:07:50.347Z,19.27
2018-11-23T13:10:18.847Z,22.03
2018-11-23T13:12:50.831Z,21.27
2018-11-23T13:15:15.917Z,19.90
2018-11-23T13:17:44.487Z,19.77
2018-11-23T13:20:14.319Z,21.30
2018-11-23T13:22:42.955Z,20.83
2018-11-23T13:25:13.403Z,21.10
2018-11-23T13:27:41.886Z,21.33
2018-11-23T13:30:15.021Z,21.23
2018-11-23T13:32:43.807Z,21.37
2018-11-23T13:35:14.714Z,20.90
2018-11-23T13:37:43.279Z,20.67
2018-11-23T13:40:13.893Z,21.97
2018-11-23T13:42:42.992Z,21.67
2018-11-23T13:45:13.339Z,20.60
2018-11-23T13:47:41.934Z,22.90
2018-11-23T13:50:13.072Z,22.10
2018-11-23T13:52:42.370Z,23.53
2018-11-23T13:55:11.166Z,21.40
2018-11-23T13:57:39.702Z,22.33
2018-11-23T14:00:13.474Z,21.67
2018-11-23T14:02:42.008Z,20.97
2018-11-23T14:05:12.224Z,21.83
2018-11-23T14:07:41.098Z,20.80
2018-11-23T14:10:11.348Z,23.10
2018-11-23T14:12:39.997Z,21.30
2018-11-23T14:15:13.084Z,22.27
2018-11-23T14:17:42.091Z,23.43
2018-11-23T14:20:12.289Z,22.60
2018-11-23T14:22:40.825Z,22.70
2018-11-23T14:25:11.386Z,22.97
2018-11-23T14:27:39.947Z,23.67
2018-11-23T14:30:13.707Z,24.23
2018-11-23T14:32:42.608Z,23.10
2018-11-23T14:35:13.031Z,22.90
2018-11-23T14:37:43.055Z,24.17
2018-11-23T14:40:12.646Z,23.37
2018-11-23T14:42:42.307Z,23.10
2018-11-23T14:45:14.506Z,24.33
2018-11-23T14:47:43.244Z,24.63
2018-11-23T14:50:15.542Z,23.43
2018-11-23T14:52:45.269Z,24.33
2018-11-23T14:55:14.156Z,23.57
2018-11-23T14:57:43.194Z,24.70
2018-11-23T15:00:14.387Z,24.17
2018-11-23T15:02:44.198Z,25.93
2018-11-23T15:05:12.688Z,24.20
2018-11-23T15:07:41.226Z,23.13
2018-11-23T15:10:12.736Z,23.47
2018-11-23T15:12:41.196Z,24.70
2018-11-23T15:15:13.834Z,24.27
2018-11-23T15:17:43.626Z,23.37
2018-11-23T15:20:17.919Z,24.97
2018-11-23T15:22:47.660Z,25.17
2018-11-23T15:25:17.082Z,25.67
2018-11-23T15:27:45.831Z,24.93
2018-11-23T15:30:18.512Z,26.23
2018-11-23T15:32:46.995Z,24.07
2018-11-23T15:35:15.882Z,25.30
2018-11-23T15:37:44.398Z,25.17
2018-11-23T15:40:16.716Z,23.50
2018-11-23T15:42:45.519Z,26.53
2018-11-23T15:45:17.731Z,23.93
2018-11-23T15:47:46.173Z,25.57
2018-11-23T15:50:16.851Z,24.80
2018-11-23T15:52:46.163Z,25.23
2018-11-23T15:55:17.997Z,26.03
2018-11-23T15:57:47.256Z,25.50
2018-11-23T16:00:19.144Z,25.77
2018-11-23T16:02:47.895Z,25.90
2018-11-23T16:05:17.626Z,25.20
2018-11-23T16:07:46.233Z,25.47
2018-11-23T16:10:23.620Z,26.07
2018-11-23T16:12:53.234Z,26.40
2018-11-23T16:15:23.059Z,26.53
2018-11-23T16:17:52.041Z,26.73
2018-11-23T16:20:23.637Z,26.40
2018-11-23T16:22:53.419Z,27.00
2018-11-23T16:25:21.966Z,27.93
2018-11-23T16:27:51.993Z,27.90
2018-11-23T16:30:22.126Z,26.03
2018-11-23T16:32:52.020Z,27.37
2018-11-23T16:35:21.819Z,27.07
2018-11-23T16:37:51.082Z,28.37
2018-11-23T16:40:26.358Z,27.20
2018-11-23T16:42:55.583Z,27.90
2018-11-23T16:45:26.055Z,26.40
2018-11-23T16:47:55.311Z,28.10
2018-11-23T16:50:23.855Z,27.60
2018-11-23T16:52:52.595Z,26.73
2018-11-23T16:55:22.351Z,27.70
2018-11-23T16:57:53.410Z,28.40
2018-11-23T17:00:26.188Z,29.17
2018-11-23T17:02:55.554Z,28.27
2018-11-23T17:05:25.695Z,27.87
2018-11-23T17:07:54.195Z,26.80
2018-11-23T17:10:22.692Z,27.63
2018-11-23T17:12:51.167Z,27.57
2018-11-23T17:15:21.312Z,27.07
2018-11-23T17:17:49.810Z,25.50
2018-11-23T17:20:19.607Z,26.27
2018-11-23T17:22:50.205Z,26.77
2018-11-23T17:25:19.919Z,27.13
2018-11-23T17:27:49.088Z,26.63
2018-11-23T17:30:18.622Z,27.53
2018-11-23T17:32:47.756Z,28.20
2018-11-23T17:35:16.615Z,34.60
2018-11-23T17:37:45.111Z,29.30
2018-11-23T17:40:16.846Z,26.57
2018-11-23T17:42:45.331Z,26.93
2018-11-23T17:45:15.465Z,25.60
2018-11-23T17:47:43.967Z,26.67
2018-11-23T17:50:13.948Z,27.50
2018-11-23T17:52:42.656Z,27.70
2018-11-23T17:55:12.287Z,26.07
2018-11-23T17:57:41.359Z,27.23
2018-11-23T18:00:13.315Z,26.13
2018-11-23T18:02:42.079Z,26.87
2018-11-23T18:05:12.306Z,26.40
2018-11-23T18:07:40.789Z,25.37
2018-11-23T18:10:12.023Z,26.30
2018-11-23T18:12:40.524Z,27.07
2018-11-23T18:15:11.301Z,25.27
2018-11-23T18:17:39.798Z,25.70
2018-11-23T18:20:10.123Z,26.20
2018-11-23T18:22:39.031Z,27.57
2018-11-23T18:25:11.122Z,26.43
2018-11-23T18:27:39.689Z,26.63
2018-11-23T18:30:09.773Z,25.47
2018-11-23T18:32:38.299Z,26.40
2018-11-23T18:35:07.928Z,25.37
2018-11-23T18:37:36.443Z,24.27
2018-11-23T18:40:08.737Z,25.17
2018-11-23T18:42:43.591Z,26.77
2018-11-23T18:45:13.031Z,26.10
2018-11-23T18:47:42.455Z,25.80
2018-11-23T18:50:14.300Z,25.27
2018-11-23T18:52:42.837Z,24.30
2018-11-23T18:55:17.998Z,24.87
2018-11-23T18:57:40.656Z,25.53
2018-11-23T19:00:11.935Z,26.43
2018-11-23T19:02:40.551Z,24.53
2018-11-23T19:05:18.878Z,25.33
2018-11-23T19:07:47.397Z,23.93
2018-11-23T19:10:15.908Z,24.53
2018-11-23T19:12:44.411Z,25.17
2018-11-23T19:15:14.486Z,24.17
2018-11-23T19:17:43.942Z,24.33
2018-11-23T19:20:15.297Z,26.20
2018-11-23T19:22:45.520Z,25.40
2018-11-23T19:25:14.050Z,24.63
2018-11-23T19:27:42.531Z,25.80
2018-11-23T19:30:13.290Z,26.00
2018-11-23T19:32:41.769Z,25.30
2018-11-23T19:35:10.651Z,24.87
2018-11-23T19:37:39.102Z,26.47
2018-11-23T19:40:10.393Z,24.67
2018-11-23T19:42:38.977Z,26.13
2018-11-23T19:45:12.435Z,24.10
2018-11-23T19:47:40.910Z,25.97
2018-11-23T19:50:11.918Z,24.87
2018-11-23T19:52:40.681Z,25.63
2018-11-23T19:55:10.525Z,25.77
2018-11-23T19:57:38.999Z,25.87
2018-11-23T20:00:12.759Z,25.43
2018-11-23T20:02:41.216Z,26.73
2018-11-23T20:05:09.778Z,26.27
2018-11-23T20:07:38.279Z,26.13
2018-11-23T20:10:10.522Z,26.70
2018-11-23T20:12:38.979Z,27.03
2018-11-23T20:15:10.034Z,26.30
2018-11-23T20:17:41.505Z,25.17
2018-11-23T20:20:09.134Z,24.13
2018-11-23T20:22:37.599Z,25.17
2018-11-23T20:25:08.477Z,25.37
2018-11-23T20:27:36.967Z,27.93
2018-11-23T20:30:15.600Z,27.60
2018-11-23T20:32:44.112Z,26.33
2018-11-23T20:35:14.883Z,26.47
2018-11-23T20:37:43.376Z,24.80
2018-11-23T20:40:14.355Z,25.73
2018-11-23T20:42:43.259Z,26.33
2018-11-23T20:45:12.398Z,25.27
2018-11-23T20:47:40.946Z,24.00
2018-11-23T20:50:13.719Z,23.23
2018-11-23T20:52:42.209Z,24.27
2018-11-23T20:55:13.186Z,23.67
2018-11-23T20:57:41.682Z,24.27
2018-11-23T21:00:12.703Z,23.70
2018-11-23T21:02:41.554Z,24.53
2018-11-23T21:05:11.202Z,25.03
2018-11-23T21:07:40.081Z,24.90
2018-11-23T21:10:10.349Z,26.30
2018-11-23T21:12:38.843Z,28.87
2018-11-23T21:15:13.561Z,26.23
2018-11-23T21:17:42.046Z,27.03
2018-11-23T21:20:10.523Z,26.67
2018-11-23T21:22:39.039Z,26.03
2018-11-23T21:25:09.722Z,25.57
2018-11-23T21:27:38.254Z,25.10
2018-11-23T21:30:12.881Z,24.57
2018-11-23T21:32:41.416Z,23.97
2018-11-23T21:35:10.997Z,27.93
2018-11-23T21:37:39.503Z,28.03
2018-11-23T21:40:10.524Z,27.70
2018-11-23T21:42:39.114Z,27.53
2018-11-23T21:45:12.013Z,26.20
2018-11-23T21:47:40.526Z,26.97
2018-11-23T21:50:11.571Z,28.90
2018-11-23T21:52:40.088Z,26.80
2018-11-23T21:55:10.368Z,27.10
2018-11-23T21:57:38.919Z,28.13
2018-11-23T22:00:09.271Z,27.83
2018-11-23T22:02:37.872Z,27.87
2018-11-23T22:05:07.010Z,27.93
2018-11-23T22:07:35.616Z,27.77
2018-11-23T22:10:06.705Z,27.67
2018-11-23T22:12:35.230Z,28.80
2018-11-23T22:15:03.903Z,29.80
2018-11-23T22:17:32.425Z,30.83
2018-11-23T22:20:00.996Z,31.40
2018-11-23T22:22:29.540Z,31.53
2018-11-23T22:24:58.035Z,33.97
2018-11-23T22:27:26.713Z,35.50
2018-11-23T22:29:55.194Z,31.57
2018-11-23T22:32:23.856Z,32.10
2018-11-23T22:34:52.368Z,30.40
2018-11-23T22:37:21.044Z,32.33
2018-11-23T22:39:49.554Z,30.03
2018-11-23T22:42:18.083Z,30.73
2018-11-23T22:44:46.622Z,28.00
2018-11-23T22:47:15.172Z,28.87
2018-11-23T22:49:43.717Z,27.50
2018-11-23T22:52:12.219Z,28.57
2018-11-23T22:54:40.764Z,28.20
2018-11-23T22:57:11.756Z,28.37
2018-11-23T22:59:38.118Z,28.00
2018-11-23T23:02:06.740Z,28.77
2018-11-23T23:04:35.299Z,27.63
2018-11-23T23:07:03.803Z,29.17
2018-11-23T23:09:32.451Z,27.70
2018-11-23T23:12:00.939Z,29.77
2018-11-23T23:14:29.435Z,27.17
2018-11-23T23:16:57.916Z,28.60
2018-11-23T23:19:26.419Z,29.03
2018-11-23T23:21:54.903Z,27.60
2018-11-23T23:24:23.922Z,28.60
2018-11-23T23:26:52.428Z,29.53
2018-11-23T23:29:21.083Z,28.43
2018-11-23T23:31:49.612Z,28.20
2018-11-23T23:34:18.474Z,27.93
2018-11-23T23:36:46.951Z,29.10
2018-11-23T23:39:15.497Z,28.53
2018-11-23T23:41:44.008Z,29.47
2018-11-23T23:44:12.494Z,29.67
2018-11-23T23:46:40.991Z,28.53
2018-11-23T23:49:09.474Z,29.97
2018-11-23T23:51:38.607Z,30.43
2018-11-23T23:54:07.136Z,30.20
2018-11-23T23:56:36.564Z,30.97
2018-11-23T23:59:05.602Z,32.77
